createdAt,value
2019-02-05T00:03:41.340Z,80.72
2019-02-05T00:06:07.560Z,82.03
2019-02-05T00:08:35.695Z,83.91
2019-02-05T00:11:23.068Z,81.78
2019-02-05T00:13:49.188Z,81.70
2019-02-05T00:16:15.429Z,81.38
2019-02-05T00:18:41.658Z,82.87
2019-02-05T00:21:07.799Z,84.54
2019-02-05T00:23:34.252Z,84.78
2019-02-05T00:26:06.197Z,83.97
2019-02-05T00:31:25.242Z,83.72
2019-02-05T00:36:21.574Z,82.86
2019-02-05T00:38:47.791Z,83.08
2019-02-05T00:41:14.028Z,84.94
2019-02-05T00:43:40.181Z,84.16
2019-02-05T00:46:06.401Z,84.01
2019-02-05T00:48:32.616Z,84.11
2019-02-05T00:50:58.858Z,83.79
2019-02-05T00:53:25.283Z,83.50
2019-02-05T00:55:51.521Z,83.71
2019-02-05T00:58:17.738Z,84.69
2019-02-05T01:00:43.969Z,83.73
2019-02-05T01:03:10.189Z,83.74
2019-02-05T01:05:36.863Z,83.66
2019-02-05T01:08:03.182Z,83.91
2019-02-05T01:10:49.375Z,84.08
2019-02-05T01:13:15.613Z,84.81
2019-02-05T01:15:41.879Z,83.47
2019-02-05T01:18:07.995Z,84.68
2019-02-05T01:23:08.432Z,83.41
2019-02-05T01:25:54.420Z,83.47
2019-02-05T01:28:20.652Z,83.36
2019-02-05T01:30:47.815Z,82.45
2019-02-05T01:33:14.047Z,83.28
2019-02-05T01:35:40.300Z,84.91
2019-02-05T01:40:57.203Z,84.33
2019-02-05T01:43:23.450Z,83.34
2019-02-05T01:45:49.591Z,82.43
2019-02-05T01:48:15.808Z,82.28
2019-02-05T01:50:43.930Z,82.51
2019-02-05T01:53:10.075Z,82.87
2019-02-05T01:55:36.309Z,83.89
2019-02-05T01:58:02.560Z,84.48
2019-02-05T02:01:10.098Z,83.95
2019-02-05T02:03:36.370Z,84.71
2019-02-05T02:12:10.258Z,84.36
2019-02-05T02:14:36.471Z,84.36
2019-02-05T02:17:44.014Z,84.52
2019-02-05T02:20:42.705Z,84.27
2019-02-05T02:23:08.945Z,82.84
2019-02-05T02:25:35.178Z,84.36
2019-02-05T02:28:01.416Z,83.73
2019-02-05T02:30:47.312Z,84.33
2019-02-05T02:33:13.846Z,83.65
2019-02-05T02:35:40.078Z,83.96
2019-02-05T02:38:06.314Z,83.66
2019-02-05T02:40:32.440Z,83.64
2019-02-05T02:42:58.581Z,83.87
2019-02-05T02:45:24.793Z,84.82
2019-02-05T02:47:51.019Z,84.38
2019-02-05T02:50:58.566Z,84.88
2019-02-05T02:53:24.695Z,84.74
2019-02-05T02:55:50.818Z,84.71
2019-02-05T02:58:17.064Z,84.63
2019-02-05T03:00:43.278Z,83.47
2019-02-05T03:03:09.714Z,84.08
2019-02-05T03:05:35.945Z,84.49
2019-02-05T03:08:02.233Z,84.84
2019-02-05T03:13:41.719Z,83.77
2019-02-05T03:16:07.953Z,84.05
2019-02-05T03:18:34.172Z,83.94
2019-02-05T03:21:00.412Z,84.50
2019-02-05T03:23:26.552Z,84.75
2019-02-05T03:25:52.671Z,84.61
2019-02-05T03:28:18.790Z,84.32
2019-02-05T03:30:45.024Z,84.39
2019-02-05T03:33:11.140Z,84.40
2019-02-05T03:35:39.275Z,84.21
2019-02-05T03:38:05.510Z,84.32
2019-02-05T03:41:13.056Z,84.88
2019-02-05T03:43:52.041Z,84.69
2019-02-05T03:49:11.875Z,84.25
2019-02-05T03:52:19.385Z,84.49
2019-02-05T03:55:26.956Z,84.28
2019-02-05T04:07:41.045Z,84.86
2019-02-05T04:10:46.777Z,83.68
2019-02-05T04:13:52.513Z,84.39
2019-02-05T04:16:58.295Z,84.17
2019-02-05T04:32:13.611Z,84.91
2019-02-05T04:35:19.340Z,84.83
2019-02-05T04:38:25.072Z,84.34
2019-02-05T04:44:24.303Z,84.79
2019-02-05T04:50:30.748Z,84.44
2019-02-05T04:53:38.290Z,83.64
2019-02-05T04:56:44.015Z,83.43
2019-02-05T04:59:51.581Z,83.31
2019-02-05T05:02:59.108Z,83.94
2019-02-05T05:06:05.150Z,84.00
2019-02-05T05:09:03.793Z,83.76
2019-02-05T05:11:30.029Z,83.73
2019-02-05T05:13:56.272Z,84.03
2019-02-05T05:17:03.836Z,84.41
2019-02-05T05:25:24.837Z,84.24
2019-02-05T05:28:32.371Z,84.38
2019-02-05T05:30:58.509Z,84.12
2019-02-05T05:33:24.630Z,84.58
2019-02-05T05:35:50.861Z,84.52
2019-02-05T05:38:17.080Z,84.69
2019-02-05T05:40:43.206Z,84.65
2019-02-05T05:43:09.441Z,84.27
2019-02-05T05:45:35.659Z,84.23
2019-02-05T05:48:01.890Z,84.25
2019-02-05T05:50:29.920Z,83.71
2019-02-05T05:52:56.181Z,84.06
2019-02-05T05:55:22.413Z,84.33
2019-02-05T05:57:48.648Z,83.95
2019-02-05T06:03:28.576Z,83.97
2019-02-05T06:05:54.861Z,84.69
2019-02-05T06:08:21.142Z,85.04
2019-02-05T06:10:47.424Z,84.14
2019-02-05T06:13:13.656Z,84.36
2019-02-05T06:15:39.880Z,85.32
2019-02-05T06:18:06.260Z,83.96
2019-02-05T06:20:34.277Z,85.65
2019-02-05T06:23:00.526Z,84.34
2019-02-05T06:25:26.757Z,85.42
2019-02-05T06:27:52.887Z,84.38
2019-02-05T06:30:19.009Z,85.68
2019-02-05T06:32:45.237Z,85.84
2019-02-05T06:38:12.548Z,84.77
2019-02-05T06:40:38.779Z,85.67
2019-02-05T06:43:04.918Z,84.56
2019-02-05T06:46:12.447Z,85.05
2019-02-05T06:48:38.687Z,84.10
2019-02-05T06:51:04.907Z,83.90
2019-02-05T06:53:31.033Z,85.37
2019-02-05T06:59:11.015Z,84.68
2019-02-05T07:01:37.137Z,84.25
2019-02-05T07:04:44.688Z,84.41
2019-02-05T07:07:10.824Z,83.97
2019-02-05T07:09:37.055Z,83.64
2019-02-05T07:14:50.776Z,82.88
2019-02-05T07:17:16.945Z,82.39
2019-02-05T07:19:43.086Z,82.74
2019-02-05T07:22:09.201Z,82.81
2019-02-05T07:24:35.435Z,82.51
2019-02-05T07:27:01.542Z,82.55
2019-02-05T07:29:27.812Z,82.98
2019-02-05T07:31:53.924Z,82.52
2019-02-05T07:34:21.322Z,82.76
2019-02-05T07:36:48.063Z,83.10
2019-02-05T07:39:14.186Z,82.98
2019-02-05T07:41:40.304Z,83.68
2019-02-05T07:44:06.445Z,82.99
2019-02-05T07:46:32.651Z,82.79
2019-02-05T07:48:58.775Z,83.06
2019-02-05T07:51:24.888Z,83.22
2019-02-05T07:53:51.081Z,84.13
2019-02-05T07:56:17.245Z,83.49
2019-02-05T07:58:43.371Z,83.66
2019-02-05T08:01:11.401Z,83.67
2019-02-05T08:03:37.641Z,84.62
2019-02-05T08:08:57.637Z,83.22
2019-02-05T08:11:23.764Z,81.88
2019-02-05T08:13:49.879Z,82.04
2019-02-05T08:16:17.926Z,81.59
2019-02-05T08:18:45.952Z,81.63
2019-02-05T08:21:12.084Z,81.61
2019-02-05T08:23:38.224Z,81.31
2019-02-05T08:26:04.356Z,81.46
2019-02-05T08:28:40.675Z,81.40
2019-02-05T08:30:58.597Z,81.60
2019-02-05T08:33:24.815Z,81.50
2019-02-05T08:35:50.965Z,80.90
2019-02-05T08:38:17.176Z,81.12
2019-02-05T08:40:45.295Z,80.35
2019-02-05T08:43:11.429Z,80.64
2019-02-05T08:46:18.961Z,81.11
2019-02-05T08:48:45.084Z,81.17
2019-02-05T08:51:11.420Z,81.40
2019-02-05T08:53:37.659Z,81.64
2019-02-05T08:56:03.769Z,81.19
2019-02-05T08:58:31.390Z,81.44
2019-02-05T09:00:58.009Z,80.77
2019-02-05T09:03:24.138Z,81.40
2019-02-05T09:05:50.255Z,81.53
2019-02-05T09:08:16.489Z,80.65
2019-02-05T09:10:42.704Z,80.88
2019-02-05T09:13:10.744Z,81.09
2019-02-05T09:15:36.893Z,80.73
2019-02-05T09:18:44.525Z,81.37
2019-02-05T09:21:10.647Z,80.96
2019-02-05T09:23:36.970Z,81.29
2019-02-05T09:26:03.087Z,81.51
2019-02-05T09:28:29.222Z,81.42
2019-02-05T09:30:55.335Z,81.93
2019-02-05T09:34:02.878Z,81.65
2019-02-05T09:36:29.095Z,81.08
2019-02-05T09:38:55.227Z,81.50
2019-02-05T09:41:21.344Z,81.27
2019-02-05T09:43:47.491Z,81.65
2019-02-05T09:46:13.638Z,81.78
2019-02-05T09:48:39.835Z,81.17
2019-02-05T09:51:05.966Z,80.74
2019-02-05T09:53:32.091Z,80.93
2019-02-05T09:56:00.220Z,80.96
2019-02-05T09:58:26.349Z,80.56
2019-02-05T10:00:52.581Z,81.14
2019-02-05T10:03:18.720Z,81.08
2019-02-05T10:06:04.705Z,80.69
2019-02-05T10:08:30.832Z,80.55
2019-02-05T10:10:58.849Z,80.61
2019-02-05T10:13:24.985Z,80.69
2019-02-05T10:15:51.116Z,80.94
2019-02-05T10:18:17.335Z,81.11
2019-02-05T10:20:43.669Z,80.34
2019-02-05T10:23:09.891Z,80.78
2019-02-05T10:25:36.015Z,80.46
2019-02-05T10:28:02.133Z,79.86
2019-02-05T10:31:09.668Z,79.78
2019-02-05T10:33:35.784Z,79.85
2019-02-05T10:38:56.312Z,79.81
2019-02-05T10:41:22.439Z,80.25
2019-02-05T10:43:48.562Z,79.96
2019-02-05T10:46:14.694Z,79.72
2019-02-05T10:48:40.802Z,80.33
2019-02-05T10:51:06.939Z,78.75
2019-02-05T10:53:33.047Z,79.44
2019-02-05T10:55:59.174Z,79.65
2019-02-05T10:58:25.484Z,81.09
2019-02-05T11:00:51.637Z,80.42
2019-02-05T11:03:17.753Z,81.50
2019-02-05T11:05:43.885Z,80.21
2019-02-05T11:08:10.000Z,78.33
2019-02-05T11:10:36.123Z,79.19
2019-02-05T11:13:02.235Z,80.02
2019-02-05T11:16:09.789Z,79.69
2019-02-05T11:18:35.932Z,79.73
2019-02-05T11:21:04.227Z,79.74
2019-02-05T11:23:30.079Z,81.02
2019-02-05T11:25:56.214Z,81.19
2019-02-05T11:28:22.323Z,80.51
2019-02-05T11:30:50.390Z,80.71
2019-02-05T11:33:16.501Z,80.35
2019-02-05T11:35:42.727Z,77.69
2019-02-05T11:38:50.243Z,77.87
2019-02-05T11:41:16.476Z,79.30
2019-02-05T11:43:42.592Z,77.50
2019-02-05T11:46:08.726Z,77.35
2019-02-05T11:48:34.848Z,77.92
2019-02-05T11:51:01.071Z,76.71
2019-02-05T11:53:27.187Z,76.78
2019-02-05T11:55:53.306Z,78.18
2019-02-05T11:58:19.535Z,77.76
2019-02-05T12:01:05.604Z,77.79
2019-02-05T12:03:31.863Z,77.89
2019-02-05T12:05:57.974Z,77.64
2019-02-05T12:08:24.121Z,77.64
2019-02-05T12:10:50.233Z,78.61
2019-02-05T12:13:16.364Z,78.33
2019-02-05T12:15:42.583Z,79.08
2019-02-05T12:18:08.712Z,78.23
2019-02-05T12:20:42.399Z,78.81
2019-02-05T12:23:08.633Z,79.93
2019-02-05T12:25:34.749Z,80.17
2019-02-05T12:28:00.872Z,80.71
2019-02-05T12:31:08.399Z,81.19
2019-02-05T12:33:34.528Z,80.72
2019-02-05T12:36:00.649Z,81.15
2019-02-05T12:38:26.775Z,80.45
2019-02-05T12:40:52.896Z,80.96
2019-02-05T12:43:19.132Z,80.96
2019-02-05T12:45:45.326Z,80.61
2019-02-05T12:48:11.492Z,80.10
2019-02-05T12:53:50.843Z,79.55
2019-02-05T12:56:17.048Z,80.11
2019-02-05T12:58:43.176Z,79.95
2019-02-05T13:01:09.592Z,80.94
2019-02-05T13:03:35.728Z,80.96
2019-02-05T13:06:02.032Z,80.91
2019-02-05T13:08:28.155Z,80.68
2019-02-05T13:10:54.263Z,80.96
2019-02-05T13:13:20.498Z,81.32
2019-02-05T13:15:46.614Z,81.07
2019-02-05T13:18:12.829Z,81.03
2019-02-05T13:20:40.975Z,81.15
2019-02-05T13:26:01.471Z,81.49
2019-02-05T13:28:27.595Z,81.74
2019-02-05T13:30:55.627Z,81.56
2019-02-05T13:33:21.913Z,81.85
2019-02-05T13:35:48.168Z,82.11
2019-02-05T13:38:14.383Z,80.76
2019-02-05T13:40:40.512Z,81.35
2019-02-05T13:46:13.975Z,81.29
2019-02-05T13:48:40.093Z,81.27
2019-02-05T13:51:06.225Z,81.43
2019-02-05T13:53:32.338Z,81.84
2019-02-05T13:55:58.471Z,81.45
2019-02-05T13:58:24.584Z,81.34
2019-02-05T14:01:32.120Z,81.84
2019-02-05T14:03:58.239Z,81.45
2019-02-05T14:06:24.385Z,81.01
2019-02-05T14:08:52.411Z,81.67
2019-02-05T14:11:18.541Z,81.72
2019-02-05T14:13:44.762Z,81.60
2019-02-05T14:16:11.004Z,81.75
2019-02-05T14:18:37.219Z,81.85
2019-02-05T14:23:57.482Z,81.09
2019-02-05T14:26:23.635Z,81.24
2019-02-05T14:28:49.750Z,81.64
2019-02-05T14:31:15.872Z,81.45
2019-02-05T14:33:41.994Z,81.49
2019-02-05T14:36:08.123Z,81.87
2019-02-05T14:38:34.234Z,81.95
2019-02-05T14:41:00.490Z,81.38
2019-02-05T14:43:26.606Z,81.85
2019-02-05T14:45:52.732Z,82.19
2019-02-05T14:48:18.843Z,82.00
2019-02-05T14:51:26.376Z,82.08
2019-02-05T14:53:52.591Z,82.06
2019-02-05T14:56:18.720Z,82.42
2019-02-05T14:58:44.831Z,82.34
2019-02-05T15:01:10.971Z,81.97
2019-02-05T15:03:37.081Z,81.96
2019-02-05T15:06:03.196Z,82.00
2019-02-05T15:08:29.328Z,82.02
2019-02-05T15:10:57.350Z,81.58
2019-02-05T15:13:23.476Z,81.25
2019-02-05T15:15:49.587Z,81.99
2019-02-05T15:18:15.717Z,81.51
2019-02-05T15:23:42.676Z,81.83
2019-02-05T15:26:08.795Z,82.32
2019-02-05T15:28:34.976Z,82.09
2019-02-05T15:31:01.096Z,81.83
2019-02-05T15:36:24.723Z,82.36
2019-02-05T15:38:50.959Z,82.66
2019-02-05T15:41:17.085Z,82.66
2019-02-05T15:43:43.212Z,83.05
2019-02-05T15:46:09.423Z,82.88
2019-02-05T15:48:35.553Z,82.96
2019-02-05T15:51:03.575Z,82.77
2019-02-05T15:53:29.708Z,82.74
2019-02-05T15:55:55.925Z,82.56
2019-02-05T15:58:22.074Z,82.53
2019-02-05T16:00:48.288Z,82.82
2019-02-05T16:03:14.498Z,82.74
2019-02-05T16:05:40.636Z,82.75
2019-02-05T16:08:06.765Z,82.83
2019-02-05T16:10:32.880Z,82.56
2019-02-05T16:12:59.216Z,82.33
2019-02-05T16:15:25.335Z,82.31
2019-02-05T16:17:51.448Z,82.29
2019-02-05T16:20:58.995Z,81.80
2019-02-05T16:23:25.143Z,82.00
2019-02-05T16:25:51.267Z,81.93
2019-02-05T16:28:17.382Z,81.83
2019-02-05T16:30:43.519Z,82.01
2019-02-05T16:33:09.652Z,82.40
2019-02-05T16:35:35.799Z,82.57
2019-02-05T16:38:01.905Z,82.52
2019-02-05T16:41:09.443Z,82.08
2019-02-05T16:43:35.570Z,82.04
2019-02-05T16:46:01.714Z,81.77
2019-02-05T16:48:27.909Z,81.03
2019-02-05T16:50:56.047Z,80.87
2019-02-05T16:53:22.159Z,81.14
2019-02-05T16:55:48.391Z,81.44
2019-02-05T16:58:14.518Z,81.13
2019-02-05T17:00:40.651Z,80.77
2019-02-05T17:03:06.759Z,80.60
2019-02-05T17:06:14.295Z,80.78
2019-02-05T17:08:40.426Z,80.92
2019-02-05T17:11:06.661Z,80.17
2019-02-05T17:13:32.784Z,79.89
2019-02-05T17:15:58.905Z,79.44
2019-02-05T17:18:26.955Z,80.15
2019-02-05T17:20:53.088Z,80.25
2019-02-05T17:23:19.224Z,79.82
2019-02-05T17:25:45.352Z,79.89
2019-02-05T17:28:11.463Z,80.07
2019-02-05T17:31:18.999Z,80.54
2019-02-05T17:33:45.135Z,80.61
2019-02-05T17:36:11.256Z,80.26
2019-02-05T17:38:37.372Z,79.05
2019-02-05T17:41:03.599Z,79.56
2019-02-05T17:43:29.710Z,79.91
2019-02-05T17:45:55.841Z,79.98
2019-02-05T17:48:23.958Z,80.17
2019-02-05T17:50:50.183Z,79.61
2019-02-05T17:53:16.299Z,79.04
2019-02-05T17:55:42.517Z,79.10
2019-02-05T17:58:08.743Z,79.33
2019-02-05T18:00:54.923Z,78.99
2019-02-05T18:03:21.471Z,79.36
2019-02-05T18:05:47.584Z,79.65
2019-02-05T18:08:13.715Z,79.71
2019-02-05T18:10:41.927Z,80.16
2019-02-05T18:13:08.007Z,80.33
2019-02-05T18:16:15.528Z,80.24
2019-02-05T18:18:41.660Z,80.24
2019-02-05T18:21:07.804Z,79.94
2019-02-05T18:23:33.927Z,79.93
2019-02-05T18:26:00.039Z,79.55
2019-02-05T18:28:26.171Z,79.50
2019-02-05T18:30:52.809Z,79.28
2019-02-05T18:33:18.911Z,77.87
2019-02-05T18:35:45.029Z,77.36
2019-02-05T18:38:52.567Z,77.87
2019-02-05T18:41:18.805Z,78.02
2019-02-05T18:43:45.032Z,77.05
2019-02-05T18:46:12.779Z,77.41
2019-02-05T18:48:39.211Z,77.45
2019-02-05T18:51:05.342Z,77.09
2019-02-05T18:53:31.473Z,77.57
2019-02-05T18:55:57.588Z,78.34
2019-02-05T18:58:26.559Z,78.18
2019-02-05T19:00:51.741Z,78.78
2019-02-05T19:03:17.874Z,79.42
2019-02-05T19:05:43.980Z,79.76
2019-02-05T19:11:03.985Z,80.84
2019-02-05T19:13:30.117Z,79.14
2019-02-05T19:15:56.229Z,79.00
2019-02-05T19:18:22.356Z,78.58
2019-02-05T19:20:48.474Z,78.48
2019-02-05T19:23:14.641Z,78.67
2019-02-05T19:26:00.608Z,78.95
2019-02-05T19:33:34.877Z,78.90
2019-02-05T19:36:01.107Z,78.84
2019-02-05T19:38:27.232Z,78.31
2019-02-05T19:40:57.448Z,78.05
2019-02-05T19:43:23.354Z,78.26
2019-02-05T19:46:09.354Z,78.25
2019-02-05T19:48:55.395Z,78.93
2019-02-05T19:51:21.711Z,78.60
2019-02-05T19:53:47.833Z,77.23
2019-02-05T19:56:14.696Z,76.01
2019-02-05T19:58:42.090Z,77.43
2019-02-05T20:01:08.324Z,78.48
2019-02-05T20:03:38.812Z,79.03
2019-02-05T20:12:04.683Z,77.64
2019-02-05T20:14:31.123Z,77.04
2019-02-05T20:16:57.244Z,77.81
2019-02-05T20:19:24.850Z,77.73
2019-02-05T20:21:51.618Z,76.73
2019-02-05T20:24:17.768Z,77.34
2019-02-05T20:26:43.992Z,79.55
2019-02-05T20:29:10.111Z,79.76
2019-02-05T20:31:36.281Z,79.82
2019-02-05T20:34:02.567Z,77.27
2019-02-05T20:36:28.692Z,75.54
2019-02-05T20:38:56.811Z,75.09
2019-02-05T20:41:23.122Z,75.19
2019-02-05T20:43:49.365Z,75.20
2019-02-05T20:46:15.598Z,78.59
2019-02-05T20:48:41.815Z,78.14
2019-02-05T20:51:08.062Z,76.21
2019-02-05T20:53:34.283Z,76.77
2019-02-05T20:56:00.528Z,75.80
2019-02-05T20:58:26.743Z,76.57
2019-02-05T21:00:52.986Z,76.90
2019-02-05T21:03:20.995Z,77.21
2019-02-05T21:05:47.115Z,76.96
2019-02-05T21:08:13.349Z,77.28
2019-02-05T21:10:39.575Z,80.16
2019-02-05T21:13:05.730Z,80.57
2019-02-05T21:15:31.858Z,77.45
2019-02-05T21:17:58.115Z,77.76
2019-02-05T21:20:44.105Z,78.55
2019-02-05T21:23:10.354Z,78.42
2019-02-05T21:25:36.476Z,79.36
2019-02-05T21:30:56.697Z,79.85
2019-02-05T21:33:23.132Z,79.87
2019-02-05T21:35:49.250Z,80.82
2019-02-05T21:38:15.494Z,80.36
2019-02-05T21:40:41.714Z,81.74
2019-02-05T21:43:07.944Z,82.03
2019-02-05T21:45:34.066Z,78.60
2019-02-05T21:48:00.199Z,80.57
2019-02-05T21:50:26.425Z,80.25
2019-02-05T21:52:52.667Z,80.39
2019-02-05T21:56:00.384Z,80.07
2019-02-05T21:58:26.529Z,80.29
2019-02-05T22:00:52.895Z,80.82
2019-02-05T22:03:21.045Z,77.90
2019-02-05T22:05:48.999Z,77.93
2019-02-05T22:08:15.164Z,78.04
2019-02-05T22:10:41.348Z,78.29
2019-02-05T22:13:07.483Z,78.17
2019-02-05T22:15:33.611Z,78.53
2019-02-05T22:17:59.855Z,80.72
2019-02-05T22:23:40.185Z,81.58
2019-02-05T22:26:06.410Z,81.30
2019-02-05T22:28:32.647Z,79.91
2019-02-05T22:30:58.877Z,79.31
2019-02-05T22:33:27.980Z,80.92
2019-02-05T22:35:53.243Z,81.81
2019-02-05T22:38:19.510Z,79.88
2019-02-05T22:40:45.732Z,81.97
2019-02-05T22:43:13.765Z,81.32
2019-02-05T22:45:41.158Z,81.09
2019-02-05T22:48:08.031Z,79.17
2019-02-05T22:51:15.573Z,79.05
2019-02-05T22:53:41.719Z,81.60
2019-02-05T22:56:07.936Z,78.86
2019-02-05T22:58:34.176Z,78.58
2019-02-05T23:01:41.732Z,78.36
2019-02-05T23:04:51.083Z,80.65
2019-02-05T23:07:17.401Z,79.89
2019-02-05T23:10:23.132Z,80.89
2019-02-05T23:12:49.456Z,79.91
2019-02-05T23:15:57.040Z,80.40
2019-02-05T23:18:23.274Z,79.10
2019-02-05T23:20:49.412Z,77.99
2019-02-05T23:23:15.634Z,77.85
2019-02-05T23:28:19.255Z,81.23
2019-02-05T23:30:45.416Z,81.92
2019-02-05T23:33:11.632Z,81.79
2019-02-05T23:35:37.749Z,80.69
2019-02-05T23:38:45.291Z,80.96
2019-02-05T23:41:11.827Z,80.13
2019-02-05T23:43:37.945Z,79.66
2019-02-05T23:48:58.350Z,80.50
2019-02-05T23:53:58.439Z,80.71
2019-02-05T23:56:25.773Z,80.42
2019-02-05T23:58:52.618Z,80.86
